Latest Weather Observations for Forrest

IDW60801

Issued at 10:13 am WST Tuesday 22 September 2020 (issued every 10 minutes, with the page automatically refreshed every 10 minutes)

About weather observations | Map of weather stations | Latest weather observations for WA | Other Formats
Station Details ID: 011052 Name: FORREST Lat: -30.85 Lon: 128.11 Height: 159.0 m
Data from the previous 72 hours. | See also: Recent months at Forrest
Date/Time
WST
Temp
°C
App
Temp
°C
Dew
Point
°C
Rel
Hum
%
Delta-T
°C
Wind Press
QNH
hPa
Press
MSL
hPa
Rain since
9am
mm
Dir  Spd
km/h
Gust
km/h
Spd
kts
Gust
kts
22/10:00am 17.3 10.4 4.6 43 6.1 WSW 30 41 16 22 1021.8 1021.6 0.0
22/09:30am 16.2 9.6 4.3 45 5.6 WSW 28 35 15 19 1021.9 1021.7 0.0
22/09:00am 16.0 9.9 4.7 47 5.3 W 26 39 14 21 1022.0 1021.8 0.0
22/08:30am 14.8 9.3 6.1 56 4.2 W 24 32 13 17 1022.1 1021.9 0.0
22/08:00am 14.5 9.7 7.3 62 3.6 W 22 28 12 15 1021.8 1021.6 0.0
22/07:30am 13.3 8.2 7.5 68 2.9 W 24 30 13 16 1021.5 1021.3 0.0
22/07:00am 12.0 7.6 7.3 73 2.3 W 20 26 11 14 1021.3 1021.1 0.0
22/06:30am 9.8 5.8 6.5 80 1.6 WNW 17 24 9 13 1020.9 1020.7 0.0
22/06:00am 8.0 3.8 5.8 86 1.0 WNW 17 19 9 10 1020.4 1020.2 0.0
22/05:30am 6.7 2.3 4.7 87 0.9 WNW 17 19 9 10 1020.0 1019.8 0.0
22/05:00am 6.6 2.5 4.6 87 0.9 WNW 15 17 8 9 1019.8 1019.6 0.0
22/04:30am 6.9 2.5 4.7 86 1.0 WNW 17 17 9 9 1019.4 1019.2 0.0
22/04:00am 7.1 2.7 4.8 85 1.0 WNW 17 19 9 10 1019.2 1019.0 0.0
22/03:30am 7.1 2.7 4.6 84 1.1 WNW 17 19 9 10 1018.8 1018.5 0.0
22/03:00am 7.0 2.9 4.5 84 1.1 WNW 15 17 8 9 1018.5 1018.2 0.0
22/02:30am 7.0 2.5 4.3 83 1.2 WNW 17 17 9 9 1018.6 1018.3 0.0
22/02:00am 7.0 2.9 4.1 82 1.3 W 15 17 8 9 1018.6 1018.3 0.0
22/01:30am 7.4 3.3 4.4 81 1.3 WNW 15 17 8 9 1018.7 1018.4 0.0
22/01:00am 7.7 3.7 4.7 81 1.3 W 15 17 8 9 1018.5 1018.2 0.0
22/12:30am 7.7 3.6 4.5 80 1.4 W 15 15 8 8 1018.7 1018.4 0.0
22/12:00am 8.2 4.5 4.2 76 1.8 WSW 13 15 7 8 1018.6 1018.3 0.0
 
Date/Time
WST
Temp
°C
App
Temp
°C
Dew
Point
°C
Rel
Hum
%
Delta-T
°C
Wind Press
QNH
hPa
Press
MSL
hPa
Rain since
9am
mm
Dir  Spd
km/h
Gust
km/h
Spd
kts
Gust
kts
21/11:30pm 9.7 6.2 5.5 75 1.9 SW 13 15 7 8 1018.7 1018.4 0.0
21/11:00pm 9.7 6.2 5.5 75 1.9 SW 13 15 7 8 1018.7 1018.4 0.0
21/10:30pm 10.3 6.9 5.7 73 2.1 SSW 13 13 7 7 1018.8 1018.5 0.0
21/10:00pm 10.5 7.0 5.5 71 2.3 SSW 13 15 7 8 1018.9 1018.6 0.0
21/09:30pm 11.3 7.9 5.8 69 2.6 SSW 13 15 7 8 1018.9 1018.6 0.0
21/09:00pm 12.3 8.2 6.4 67 2.8 SSW 17 19 9 10 1018.8 1018.5 0.0
21/08:30pm 12.8 8.8 6.6 66 3.0 SSW 17 20 9 11 1018.7 1018.4 0.0
21/08:00pm 13.6 8.3 6.9 64 3.3 SSW 24 32 13 17 1018.5 1018.2 0.0
21/07:30pm 14.1 9.8 7.2 63 3.4 SSW 19 22 10 12 1018.0 1017.7 0.0
21/07:00pm 14.9 9.6 6.7 58 4.0 SSW 24 32 13 17 1017.5 1017.3 0.0
21/06:30pm 15.8 11.2 6.3 53 4.7 SSW 20 28 11 15 1016.8 1016.6 0.0
21/06:00pm 16.7 10.8 5.6 48 5.4 SW 26 33 14 18 1016.3 1016.1 0.0
21/05:30pm 17.9 12.0 3.8 39 6.7 WSW 24 37 13 20 1015.9 1015.7 0.0
21/05:00pm 18.5 11.4 3.6 37 7.0 WSW 30 37 16 20 1015.5 1015.3 0.0
21/04:30pm 19.2 11.5 3.4 35 7.5 WSW 33 39 18 21 1015.0 1014.8 0.0
21/04:00pm 19.6 10.6 2.5 32 8.0 W 39 50 21 27 1014.7 1014.5 0.0
21/03:30pm 19.3 10.6 2.2 32 7.9 WSW 37 48 20 26 1014.5 1014.3 0.0
21/03:18pm 19.3 10.5 1.3 30 8.2 W 37 56 20 30 1014.3 1014.1 0.0
21/03:00pm 19.0 10.4 2.4 33 7.7 WSW 37 50 20 27 1014.4 1014.2 0.0
21/02:40pm 19.7 10.9 3.4 34 7.7 WSW 39 57 21 31 1014.1 1013.9 0.0
21/02:30pm 19.1 9.3 2.0 32 7.9 WSW 43 57 23 31 1014.1 1013.9 0.0
21/02:02pm 20.7 11.3 2.5 30 8.6 WSW 41 59 22 32 1013.8 1013.6 0.0
21/02:00pm 20.8 11.8 2.6 30 8.6 WSW 39 56 21 30 1013.7 1013.5 0.0
21/01:30pm 20.5 10.1 1.9 29 8.6 WSW 46 65 25 35 1013.7 1013.5 0.0
21/01:04pm 20.9 11.3 3.2 31 8.5 WSW 43 61 23 33 1013.8 1013.6 0.0
21/01:00pm 20.9 11.3 3.6 32 8.3 WSW 43 57 23 31 1013.9 1013.7 0.0
21/12:30pm 19.9 10.6 3.2 33 7.9 WSW 41 59 22 32 1014.0 1013.8 0.0
21/12:00pm 19.1 10.2 3.3 35 7.5 WSW 39 54 21 29 1014.2 1014.0 0.0
21/11:38am 19.4 11.1 4.4 37 7.3 WSW 37 56 20 30 1014.2 1014.0 0.0
21/11:30am 19.0 9.9 4.0 37 7.2 W 41 56 22 30 1014.3 1014.1 0.0
21/11:12am 19.3 11.0 4.3 37 7.2 WSW 37 56 20 30 1014.4 1014.2 0.0
21/11:00am 18.7 10.0 4.1 38 7.0 WSW 39 52 21 28 1014.4 1014.2 0.0
21/10:31am 18.6 9.7 5.1 41 6.6 WSW 41 59 22 32 1014.6 1014.4 0.0
21/10:30am 17.7 8.3 4.3 41 6.4 WSW 43 59 23 32 1014.7 1014.5 0.0
21/10:00am 17.5 7.8 4.1 41 6.4 WSW 44 61 24 33 1014.6 1014.4 0.0
21/09:53am 17.5 8.1 4.5 42 6.2 WSW 43 61 23 33 1014.5 1014.3 0.0
21/09:30am 17.2 7.6 4.5 43 6.1 WSW 44 57 24 31 1014.5 1014.3 0.0
21/09:05am 17.0 7.1 4.7 44 5.9 WSW 46 65 25 35 1014.6 1014.4 0.0
21/09:00am 16.4 6.4 4.1 44 5.8 WSW 46 57 25 31 1014.6 1014.4 0.0
21/08:30am 15.7 4.9 4.1 46 5.4 W 50 61 27 33 1014.6 1014.4 0.0
21/08:00am 15.0 3.9 4.4 49 5.0 WSW 52 69 28 37 1014.3 1014.1 0.0
21/07:35am 14.4 4.4 4.4 51 4.7 WSW 46 65 25 35 1013.9 1013.7 0.0
21/07:30am 14.2 4.5 3.9 50 4.7 WSW 44 59 24 32 1014.0 1013.8 0.0
21/07:07am 13.5 4.1 2.1 46 5.0 W 41 61 22 33 1013.4 1013.1 0.0
21/07:00am 13.2 4.0 1.5 45 5.1 W 39 50 21 27 1013.4 1013.1 0.0
21/06:30am 12.4 4.4 0.5 44 5.0 WNW 32 43 17 23 1013.2 1012.9 0.0
21/06:00am 11.4 4.3 1.1 49 4.3 W 28 32 15 17 1012.8 1012.5 0.0
21/05:30am 10.9 3.3 0.3 48 4.4 WNW 30 35 16 19 1012.3 1012.0 0.0
21/05:00am 10.9 2.8 -0.2 46 4.5 WNW 32 39 17 21 1011.8 1011.5 0.0
21/04:30am 10.4 3.8 -0.7 46 4.4 WNW 24 30 13 16 1011.4 1011.1 0.0
21/04:00am 11.0 4.3 -0.8 44 4.8 WNW 24 28 13 15 1010.9 1010.7 0.0
21/03:30am 11.9 4.5 -0.6 42 5.1 WNW 28 33 15 18 1010.6 1010.4 0.0
21/03:00am 12.0 4.2 -0.8 41 5.2 WNW 30 37 16 20 1010.3 1010.1 0.0
21/02:30am 12.8 4.1 -0.8 39 5.6 W 35 46 19 25 1010.0 1009.8 0.0
21/02:00am 12.4 4.5 -1.5 38 5.6 WNW 30 37 16 20 1010.0 1009.8 0.0
21/01:30am 12.3 4.7 -2.3 36 5.8 WNW 28 33 15 18 1010.0 1009.8 0.0
21/01:00am 12.6 4.5 -2.8 34 6.0 WNW 30 35 16 19 1009.9 1009.7 0.0
21/12:30am 13.0 4.9 -2.9 33 6.2 WNW 30 35 16 19 1010.1 1009.9 0.0
21/12:00am 13.4 5.3 -3.4 31 6.5 WNW 30 37 16 20 1010.1 1009.9 0.0
 
Date/Time
WST
Temp
°C
App
Temp
°C
Dew
Point
°C
Rel
Hum
%
Delta-T
°C
Wind Press
QNH
hPa
Press
MSL
hPa
Rain since
9am
mm
Dir  Spd
km/h
Gust
km/h
Spd
kts
Gust
kts
20/11:30pm 13.6 5.4 -3.6 30 6.7 WNW 30 37 16 20 1010.2 1010.0 0.0
20/11:00pm 13.7 5.5 -4.0 29 6.8 WNW 30 37 16 20 1010.3 1010.1 0.0
20/10:30pm 13.7 5.4 -4.5 28 6.9 NW 30 37 16 20 1010.3 1010.1 0.0
20/10:00pm 13.9 5.9 -5.3 26 7.2 NW 28 37 15 20 1010.3 1010.1 0.0
20/09:30pm 14.0 5.6 -5.7 25 7.3 NW 30 35 16 19 1010.5 1010.3 0.0
20/09:00pm 13.6 6.4 -5.5 26 7.1 NW 24 28 13 15 1010.4 1010.2 0.0
20/08:30pm 13.7 6.4 -5.9 25 7.2 NW 24 28 13 15 1010.5 1010.3 0.0
20/08:00pm 13.9 7.4 -6.3 24 7.4 NW 20 24 11 13 1010.3 1010.1 0.0
20/07:30pm 14.7 8.2 -6.2 23 7.8 NW 20 26 11 14 1010.2 1010.0 0.0
20/07:00pm 15.1 8.6 -5.9 23 7.9 NW 20 26 11 14 1010.0 1009.8 0.0
20/06:30pm 15.8 8.1 -6.5 21 8.3 WNW 26 32 14 17 1009.6 1009.4 0.0
20/06:00pm 16.8 8.3 -6.9 19 8.9 WNW 30 37 16 20 1009.1 1008.9 0.0
20/05:30pm 17.6 6.4 -7.7 17 9.4 WNW 44 56 24 30 1008.9 1008.7 0.0
20/05:11pm 17.8 6.6 -7.5 17 9.5 WNW 44 63 24 34 1008.7 1008.5 0.0
20/05:00pm 18.2 5.9 -7.2 17 9.6 WNW 50 65 27 35 1008.6 1008.4 0.0
20/04:50pm 18.4 7.4 -7.1 17 9.7 WNW 43 65 23 35 1008.4 1008.2 0.0
20/04:30pm 18.7 6.8 -6.8 17 9.8 WNW 48 61 26 33 1008.3 1008.1 0.0
20/04:00pm 19.2 6.5 -7.2 16 10.1 WNW 52 70 28 38 1007.9 1007.6 0.0
20/03:30pm 20.1 7.8 -7.3 15 10.5 WNW 50 74 27 40 1007.8 1007.5 0.0
20/03:00pm 19.6 5.8 -8.6 14 10.5 W 57 80 31 43 1007.4 1007.1 0.0
20/02:30pm 20.1 6.4 -8.2 14 10.7 W 57 76 31 41 1007.6 1007.3 0.0
20/02:00pm 20.3 7.9 -8.0 14 10.8 W 50 69 27 37 1007.4 1007.1 0.0
20/01:30pm 19.4 5.7 -7.9 15 10.3 W 57 76 31 41 1007.7 1007.4 0.0
20/01:06pm 19.7 6.8 -9.5 13 10.7 W 52 70 28 38 1007.6 1007.3 0.0
20/01:00pm 20.0 8.0 -8.3 14 10.7 W 48 61 26 33 1007.7 1007.4 0.0
20/12:30pm 19.1 6.6 -5.0 19 9.6 W 52 70 28 38 1007.9 1007.6 0.0
20/12:18pm 19.5 7.0 -5.4 18 9.9 W 52 70 28 38 1008.0 1007.7 0.0
20/12:00pm 19.1 6.2 -5.7 18 9.8 WNW 54 69 29 37 1007.9 1007.6 0.0
20/11:31am 19.4 7.9 -2.8 22 9.3 WNW 48 67 26 36 1008.4 1008.2 0.0
20/11:30am 18.5 6.5 -3.6 22 9.0 WNW 50 67 27 36 1008.4 1008.2 0.0
20/11:18am 18.7 6.0 -3.4 22 9.1 W 54 72 29 39 1008.4 1008.2 0.0
20/11:00am 18.7 6.1 -2.8 23 9.0 W 54 69 29 37 1008.5 1008.3 0.0
20/10:34am 17.4 5.0 -3.9 23 8.5 W 52 70 28 38 1008.6 1008.4 0.0
20/10:30am 17.7 5.9 -2.5 25 8.4 W 50 63 27 34 1008.7 1008.5 0.0
20/10:00am 17.7 4.8 -2.0 26 8.3 W 56 72 30 39 1008.7 1008.5 0.0
20/09:48am 17.4 4.8 -2.8 25 8.3 W 54 72 29 39 1008.7 1008.5 0.0
20/09:30am 16.8 4.3 -1.8 28 7.8 W 54 69 29 37 1008.8 1008.6 0.0
20/09:00am 17.0 5.2 0.2 32 7.3 W 52 65 28 35 1008.6 1008.4 0.2
20/08:30am 16.1 5.4 2.5 40 6.2 WNW 48 61 26 33 1008.6 1008.4 0.2
20/08:05am 16.4 6.2 5.4 48 5.3 W 48 67 26 36 1008.5 1008.3 0.2
20/08:00am 16.5 6.7 5.5 48 5.3 W 46 61 25 33 1008.5 1008.3 0.2
20/07:30am 15.8 8.2 7.6 58 4.1 WSW 37 50 20 27 1008.3 1008.1 0.2
20/07:08am 14.8 7.9 10.2 74 2.4 W 37 48 20 26 1008.2 1007.9 0.2
20/07:00am 14.4 7.5 10.4 77 2.1 W 37 50 20 27 1008.1 1007.8 0.2
20/06:51am 14.2 7.3 10.4 78 2.0 W 37 50 20 27 1008.0 1007.7 0.2
20/06:30am 13.7 8.1 10.3 80 1.8 W 30 39 16 21 1007.4 1007.1 0.2
20/06:00am 12.4 7.9 10.1 86 1.2 WNW 24 30 13 16 1006.5 1006.2 0.2
20/05:30am 11.7 7.8 9.6 87 1.1 WNW 20 26 11 14 1005.9 1005.6 0.2
20/05:00am 11.8 7.9 9.5 86 1.2 WNW 20 26 11 14 1005.6 1005.3 0.2
20/04:30am 12.3 8.6 9.5 83 1.4 WNW 19 26 10 14 1005.1 1004.8 0.2
20/04:00am 12.7 9.3 9.3 80 1.7 W 17 22 9 12 1004.6 1004.4 0.2
20/03:30am 12.7 8.7 9.2 79 1.8 W 20 26 11 14 1004.3 1004.1 0.2
20/03:00am 12.6 9.2 9.2 80 1.7 WSW 17 22 9 12 1004.0 1003.8 0.2
20/02:30am 13.7 10.0 9.4 75 2.2 WSW 19 20 10 11 1003.6 1003.4 0.2
20/02:00am 14.5 10.3 9.7 73 2.5 SW 22 26 12 14 1003.6 1003.4 0.2
20/01:30am 14.9 10.4 9.9 72 2.6 SW 24 30 13 16 1003.4 1003.2 0.2
20/01:00am 15.2 9.6 10.2 72 2.7 SW 30 35 16 19 1003.4 1003.2 0.2
20/12:30am 15.5 9.3 10.1 70 2.8 WSW 33 41 18 22 1003.4 1003.2 0.2
20/12:00am 16.7 10.4 5.6 48 5.4 WSW 28 33 15 18 1003.0 1002.8 0.2
 
Date/Time
WST
Temp
°C
App
Temp
°C
Dew
Point
°C
Rel
Hum
%
Delta-T
°C
Wind Press
QNH
hPa
Press
MSL
hPa
Rain since
9am
mm
Dir  Spd
km/h
Gust
km/h
Spd
kts
Gust
kts
19/11:30pm 17.5 11.3 2.3 36 6.9 WNW 24 28 13 15 1002.9 1002.6 0.2
19/11:00pm 18.4 12.1 3.5 37 7.1 NW 26 33 14 18 1002.8 1002.5 0.2
19/10:30pm 16.9 11.4 6.1 49 5.3 N 24 32 13 17 1002.2 1001.9 0.2
19/10:00pm 16.6 11.7 7.0 53 4.8 NNE 22 28 12 15 1001.4 1001.1 0.2
19/09:30pm 16.7 12.3 7.4 54 4.7 NNE 20 26 11 14 1001.8 1001.5 0.2
19/09:00pm 16.8 12.6 7.4 54 4.8 NNE 19 24 10 13 1002.1 1001.8 0.2
19/08:30pm 16.9 13.0 7.0 52 5.0 NE 17 19 9 10 1002.7 1002.4 0.2
19/08:00pm 16.5 13.0 7.2 54 4.7 NE 15 17 8 9 1003.1 1002.9 0.2
19/07:30pm 16.8 13.5 6.3 50 5.2 NE 13 15 7 8 1003.7 1003.5 0.2
19/07:00pm 18.0 15.0 6.2 46 5.9 NNW 11 13 6 7 1004.0 1003.8 0.2
19/06:30pm 19.3 16.2 5.4 40 6.9 NNW 11 11 6 6 1004.1 1003.9 0.2
19/06:00pm 21.4 18.4 4.0 32 8.5 NW 9 11 5 6 1004.1 1003.9 0.2
19/05:30pm 23.0 18.7 3.5 28 9.5 NW 15 19 8 10 1004.1 1003.9 0.2
19/05:00pm 25.1 18.2 2.5 23 11.0 NW 28 35 15 19 1003.9 1003.7 0.2
19/04:30pm 25.9 18.7 3.2 23 11.2 WNW 30 35 16 19 1003.8 1003.6 0.2
19/04:00pm 26.0 18.5 3.3 23 11.3 WNW 32 41 17 22 1003.7 1003.5 0.2
19/03:30pm 26.4 18.9 3.6 23 11.4 WNW 32 44 17 24 1003.8 1003.6 0.2
19/03:00pm 25.8 17.9 4.3 25 10.9 WNW 35 48 19 26 1003.9 1003.7 0.2
19/02:33pm 26.0 18.6 5.0 26 10.7 WNW 33 52 18 28 1004.0 1003.8 0.2
19/02:30pm 26.1 18.2 4.6 25 10.9 WNW 35 52 19 28 1003.9 1003.7 0.2
19/02:00pm 25.1 17.2 6.3 30 9.8 WNW 37 50 20 27 1004.4 1004.2 0.2
19/01:30pm 25.6 18.8 7.7 32 9.6 NW 33 44 18 24 1005.0 1004.7 0.2
19/01:00pm 24.7 18.4 9.0 37 8.6 NW 32 41 17 22 1005.3 1005.0 0.2
19/12:55pm 24.7 19.1 10.2 40 8.1 NW 30 48 16 26 1005.4 1005.1 0.2
19/12:30pm 23.3 17.6 9.7 42 7.4 NW 30 43 16 23 1006.0 1005.7 0.2
19/12:00pm 23.1 17.6 11.8 49 6.4 NW 32 43 17 23 1006.5 1006.2 0.2
19/11:30am 21.3 16.2 11.9 55 5.3 NW 30 39 16 21 1007.0 1006.7 0.2
19/11:00am 21.1 16.2 12.5 58 4.9 NW 30 39 16 21 1007.7 1007.4 0.0
19/10:30am 19.3 14.0 12.6 65 3.8 NW 32 39 17 21 1008.2 1007.9 0.0

Other formats

Comma delimited format used in spreadsheet applications
http://www.bom.gov.au/fwo/IDW60801/IDW60801.95646.axf

JavaScript Object Notation format (JSON) in row-major order
http://www.bom.gov.au/fwo/IDW60801/IDW60801.95646.json

Data quality

Most of these data are generated automatically and are frequently updated. Quality checks on data are not normally performed. It is possible for incorrect values to appear. Refer to information at About Latest Weather Observations and please check the disclaimer before using these data.